createdAt,value
2022-09-14T00:01:25.754Z,7.77
2022-09-14T00:04:02.313Z,7.80
2022-09-14T00:06:30.602Z,7.72
2022-09-14T00:08:58.933Z,7.74
2022-09-14T00:11:27.659Z,7.65
2022-09-14T00:13:56.327Z,7.73
2022-09-14T00:16:27.281Z,7.81
2022-09-14T00:18:56.506Z,7.80
2022-09-14T00:21:24.383Z,7.84
2022-09-14T00:23:51.487Z,7.76
2022-09-14T00:26:21.386Z,7.78
2022-09-14T00:28:54.209Z,7.55
2022-09-14T00:31:22.718Z,7.56
2022-09-14T00:33:51.301Z,7.55
2022-09-14T00:36:24.247Z,7.21
2022-09-14T00:38:51.891Z,7.40
2022-09-14T00:41:23.369Z,7.41
2022-09-14T00:44:02.407Z,7.41
2022-09-14T00:46:31.721Z,7.31
2022-09-14T00:49:03.082Z,7.11
2022-09-14T00:51:31.894Z,7.34
2022-09-14T00:54:00.841Z,7.21
2022-09-14T00:56:27.648Z,7.14
2022-09-14T00:58:57.845Z,7.06
2022-09-14T01:01:27.034Z,7.07
2022-09-14T01:03:53.934Z,7.11
2022-09-14T01:06:59.912Z,7.26
2022-09-14T01:09:43.604Z,7.17
2022-09-14T01:12:34.902Z,7.23
2022-09-14T01:15:20.462Z,7.17
2022-09-14T01:17:53.326Z,7.12
2022-09-14T01:20:45.690Z,6.85
2022-09-14T01:23:27.958Z,7.07
2022-09-14T01:26:50.398Z,6.99
2022-09-14T01:29:39.154Z,7.09
2022-09-14T01:32:53.396Z,6.89
2022-09-14T01:35:31.863Z,7.27
2022-09-14T01:38:04.975Z,7.25
2022-09-14T01:40:34.555Z,7.21
2022-09-14T01:43:10.948Z,7.14
2022-09-14T01:45:42.495Z,7.04
2022-09-14T01:48:12.764Z,6.82
2022-09-14T01:50:41.572Z,7.04
2022-09-14T01:53:30.445Z,6.85
2022-09-14T01:56:15.424Z,6.83
2022-09-14T01:58:55.170Z,6.76
2022-09-14T02:01:32.016Z,6.66
2022-09-14T02:04:03.496Z,6.57
2022-09-14T02:06:37.884Z,6.59
2022-09-14T02:09:07.011Z,6.54
2022-09-14T02:11:33.801Z,6.49
2022-09-14T02:14:00.696Z,6.34
2022-09-14T02:16:27.952Z,6.42
2022-09-14T02:18:55.042Z,6.36
2022-09-14T02:21:26.435Z,6.36
2022-09-14T02:23:53.799Z,6.47
2022-09-14T02:26:23.046Z,6.15
2022-09-14T02:28:50.234Z,6.26
2022-09-14T02:31:29.098Z,6.26
2022-09-14T02:34:11.049Z,6.22
2022-09-14T02:36:56.684Z,6.17
2022-09-14T02:39:40.585Z,6.02
2022-09-14T02:42:31.397Z,6.05
2022-09-14T02:45:06.731Z,6.02
2022-09-14T02:47:45.927Z,5.78
2022-09-14T02:50:31.516Z,6.02
2022-09-14T02:53:10.348Z,5.96
2022-09-14T02:55:42.930Z,5.85
2022-09-14T02:58:12.664Z,5.65
2022-09-14T03:00:42.949Z,5.93
2022-09-14T03:03:11.770Z,5.83
2022-09-14T03:05:38.969Z,5.92
2022-09-14T03:08:06.184Z,5.87
2022-09-14T03:10:33.767Z,5.54
2022-09-14T03:13:01.073Z,5.74
2022-09-14T03:15:28.344Z,5.68
2022-09-14T03:17:55.568Z,5.68
2022-09-14T03:20:26.210Z,5.48
2022-09-14T03:22:53.014Z,5.64
2022-09-14T03:25:20.498Z,5.59
2022-09-14T03:27:51.559Z,5.72
2022-09-14T03:30:19.633Z,5.63
2022-09-14T03:32:47.016Z,5.50
2022-09-14T03:35:15.946Z,5.54
2022-09-14T03:37:44.668Z,5.51
2022-09-14T03:40:15.158Z,5.52
2022-09-14T03:42:46.792Z,5.58
2022-09-14T03:45:15.111Z,5.54
2022-09-14T03:47:42.179Z,5.46
2022-09-14T03:50:10.532Z,5.47
2022-09-14T03:52:37.941Z,5.43
2022-09-14T03:55:06.725Z,5.54
2022-09-14T03:57:34.072Z,5.54
2022-09-14T04:00:00.867Z,5.53
2022-09-14T04:02:29.645Z,5.35
2022-09-14T04:04:56.452Z,5.49
2022-09-14T04:07:23.290Z,5.48
2022-09-14T04:09:50.166Z,5.40
2022-09-14T04:12:16.934Z,5.47
2022-09-14T04:14:43.676Z,5.14
2022-09-14T04:17:10.484Z,5.12
2022-09-14T04:19:41.639Z,5.16
2022-09-14T04:22:08.726Z,5.31
2022-09-14T04:24:35.972Z,5.45
2022-09-14T04:27:02.775Z,5.04
2022-09-14T04:29:30.768Z,5.51
2022-09-14T04:31:58.160Z,5.49
2022-09-14T04:34:25.043Z,5.40
2022-09-14T04:36:52.241Z,5.25
2022-09-14T04:39:19.722Z,5.34
2022-09-14T04:41:46.882Z,5.25
2022-09-14T04:44:14.018Z,4.94
2022-09-14T04:46:46.478Z,5.21
2022-09-14T04:49:16.024Z,5.31
2022-09-14T04:51:42.946Z,5.34
2022-09-14T04:54:13.170Z,5.58
2022-09-14T04:56:39.962Z,5.23
2022-09-14T04:59:06.815Z,5.45
2022-09-14T05:01:38.149Z,5.35
2022-09-14T05:04:06.516Z,5.08
2022-09-14T05:06:35.522Z,4.99
2022-09-14T05:09:04.835Z,5.24
2022-09-14T05:11:35.667Z,5.13
2022-09-14T05:14:03.402Z,5.09
2022-09-14T05:16:37.516Z,5.28
2022-09-14T05:19:07.085Z,5.45
2022-09-14T05:21:36.441Z,5.61
2022-09-14T05:24:06.812Z,5.67
2022-09-14T05:26:33.990Z,5.83
2022-09-14T05:29:02.166Z,6.00
2022-09-14T05:31:29.733Z,5.92
2022-09-14T05:33:57.294Z,6.01
2022-09-14T05:36:25.254Z,6.02
2022-09-14T05:38:52.187Z,6.35
2022-09-14T05:41:19.135Z,6.14
2022-09-14T05:43:46.201Z,6.71
2022-09-14T05:46:15.388Z,6.55
2022-09-14T05:48:42.782Z,6.82
2022-09-14T05:51:17.840Z,7.01
2022-09-14T05:53:51.796Z,7.03
2022-09-14T05:56:20.217Z,7.14
2022-09-14T05:58:47.709Z,7.17
2022-09-14T06:01:20.465Z,7.38
2022-09-14T06:03:48.364Z,7.32
2022-09-14T06:06:17.870Z,7.51
2022-09-14T06:08:45.313Z,7.57
2022-09-14T06:11:16.539Z,7.52
2022-09-14T06:13:44.005Z,7.31
2022-09-14T06:16:13.895Z,7.76
2022-09-14T06:18:41.966Z,7.57
2022-09-14T06:21:10.064Z,7.88
2022-09-14T06:23:37.283Z,7.84
2022-09-14T06:26:05.619Z,8.02
2022-09-14T06:28:33.474Z,8.12
2022-09-14T06:31:00.384Z,7.96
2022-09-14T06:33:27.440Z,8.24
2022-09-14T06:35:58.599Z,8.28
2022-09-14T06:38:26.522Z,8.40
2022-09-14T06:40:56.075Z,8.36
2022-09-14T06:43:24.670Z,8.38
2022-09-14T06:46:05.336Z,8.66
2022-09-14T06:48:35.547Z,8.23
2022-09-14T06:51:12.504Z,8.84
2022-09-14T06:53:39.334Z,8.91
2022-09-14T06:56:06.121Z,8.88
2022-09-14T06:58:34.368Z,9.08
2022-09-14T07:01:15.002Z,9.04
2022-09-14T07:03:44.144Z,9.02
2022-09-14T07:06:17.052Z,9.31
2022-09-14T07:08:44.539Z,9.32
2022-09-14T07:11:13.269Z,9.47
2022-09-14T07:13:40.435Z,9.27
2022-09-14T07:16:08.338Z,9.85
2022-09-14T07:18:35.636Z,9.81
2022-09-14T07:21:06.894Z,10.31
2022-09-14T07:23:36.405Z,10.46
2022-09-14T07:26:12.432Z,10.47
2022-09-14T07:28:40.544Z,10.79
2022-09-14T07:31:19.123Z,10.51
2022-09-14T07:33:46.392Z,11.07
2022-09-14T07:36:14.088Z,10.97
2022-09-14T07:38:52.571Z,11.14
2022-09-14T07:41:29.866Z,10.80
2022-09-14T07:44:00.642Z,11.18
2022-09-14T07:46:34.918Z,11.46
2022-09-14T07:49:03.465Z,11.54
2022-09-14T07:51:31.409Z,11.36
2022-09-14T07:54:00.937Z,11.22
2022-09-14T07:56:28.020Z,11.77
2022-09-14T07:59:17.141Z,11.88
2022-09-14T08:01:47.021Z,11.48
2022-09-14T08:04:13.977Z,12.00
2022-09-14T08:06:40.893Z,12.02
2022-09-14T08:09:11.128Z,11.85
2022-09-14T08:11:38.329Z,12.19
2022-09-14T08:14:10.460Z,11.83
2022-09-14T08:16:39.074Z,12.13
2022-09-14T08:19:12.349Z,12.30
2022-09-14T08:21:44.157Z,12.18
2022-09-14T08:24:18.511Z,12.50
2022-09-14T08:26:46.484Z,12.51
2022-09-14T08:29:14.212Z,12.46
2022-09-14T08:31:41.470Z,12.54
2022-09-14T08:34:08.861Z,12.67
2022-09-14T08:36:41.551Z,12.43
2022-09-14T08:39:10.850Z,12.61
2022-09-14T08:41:43.430Z,12.94
2022-09-14T08:44:18.248Z,13.03
2022-09-14T08:46:49.837Z,12.84
2022-09-14T08:49:44.405Z,13.19
2022-09-14T08:52:31.496Z,13.32
2022-09-14T08:55:01.968Z,13.24
2022-09-14T08:57:34.872Z,13.15
2022-09-14T09:00:13.731Z,13.43
2022-09-14T09:02:49.652Z,13.58
2022-09-14T09:05:33.684Z,13.39
2022-09-14T09:08:22.487Z,13.40
2022-09-14T09:10:52.506Z,13.07
2022-09-14T09:13:23.769Z,13.25
2022-09-14T09:15:54.270Z,13.21
2022-09-14T09:18:35.250Z,13.14
2022-09-14T09:21:08.570Z,12.97
2022-09-14T09:23:36.068Z,12.81
2022-09-14T09:26:32.081Z,13.04
2022-09-14T09:29:01.869Z,13.25
2022-09-14T09:31:40.415Z,13.33
2022-09-14T09:34:07.332Z,13.16
2022-09-14T09:36:37.400Z,13.81
2022-09-14T09:39:05.671Z,13.94
2022-09-14T09:41:45.327Z,13.57
2022-09-14T09:44:12.679Z,14.07
2022-09-14T09:46:47.639Z,14.00
2022-09-14T09:49:24.887Z,14.56
2022-09-14T09:51:53.532Z,14.71
2022-09-14T09:54:29.858Z,14.69
2022-09-14T09:57:14.912Z,14.82
2022-09-14T09:59:44.386Z,14.90
2022-09-14T10:02:31.395Z,14.84
2022-09-14T10:05:05.365Z,14.88
2022-09-14T10:07:34.956Z,14.59
2022-09-14T10:10:08.560Z,14.58
2022-09-14T10:12:38.114Z,14.48
2022-09-14T10:15:27.935Z,14.35
2022-09-14T10:18:13.296Z,14.77
2022-09-14T10:20:54.504Z,14.75
2022-09-14T10:23:28.102Z,14.49
2022-09-14T10:26:14.891Z,14.99
2022-09-14T10:28:49.635Z,15.18
2022-09-14T10:31:25.290Z,15.25
2022-09-14T10:33:56.598Z,15.08
2022-09-14T10:36:26.459Z,15.37
2022-09-14T10:38:58.693Z,15.48
2022-09-14T10:41:41.817Z,15.23
2022-09-14T10:44:33.486Z,15.65
2022-09-14T10:47:34.466Z,15.65
2022-09-14T10:50:13.615Z,15.81
2022-09-14T10:53:14.535Z,15.81
2022-09-14T10:55:47.093Z,15.89
2022-09-14T10:58:44.900Z,16.20
2022-09-14T11:01:38.814Z,16.40
2022-09-14T11:04:24.412Z,16.42
2022-09-14T11:07:12.681Z,16.27
2022-09-14T11:10:23.988Z,16.35
2022-09-14T11:13:16.147Z,16.56
2022-09-14T11:16:03.890Z,16.87
2022-09-14T11:18:48.705Z,17.13
2022-09-14T11:21:42.012Z,17.60
2022-09-14T11:24:24.773Z,17.86
2022-09-14T11:27:15.935Z,17.61
2022-09-14T11:30:09.459Z,17.81
2022-09-14T11:33:09.317Z,18.09
2022-09-14T11:35:45.595Z,18.38
2022-09-14T11:38:20.798Z,18.56
2022-09-14T11:41:08.209Z,18.73
2022-09-14T11:44:01.402Z,18.45
2022-09-14T11:46:34.205Z,18.45
2022-09-14T11:49:40.097Z,18.23
2022-09-14T11:52:08.075Z,18.01
2022-09-14T11:54:35.415Z,17.95
2022-09-14T11:57:04.246Z,17.93
2022-09-14T11:59:41.540Z,18.07
2022-09-14T12:02:23.937Z,17.89
2022-09-14T12:05:06.106Z,17.88
2022-09-14T12:07:48.707Z,17.82
2022-09-14T12:10:18.572Z,17.89
2022-09-14T12:12:54.327Z,17.89
2022-09-14T12:15:27.464Z,18.37
2022-09-14T12:18:24.619Z,18.71
2022-09-14T12:21:01.808Z,18.78
2022-09-14T12:23:37.398Z,18.87
2022-09-14T12:26:14.026Z,18.67
2022-09-14T12:28:53.820Z,18.69
2022-09-14T12:31:44.166Z,18.50
2022-09-14T12:34:22.883Z,18.01
2022-09-14T12:36:49.735Z,18.07
2022-09-14T12:39:31.824Z,17.98
2022-09-14T12:42:17.252Z,18.04
2022-09-14T12:44:44.168Z,18.15
2022-09-14T12:47:26.098Z,18.26
2022-09-14T12:49:54.840Z,18.08
2022-09-14T12:52:32.009Z,18.23
2022-09-14T12:55:18.519Z,18.13
2022-09-14T12:58:06.857Z,18.26
2022-09-14T13:01:14.275Z,18.22
2022-09-14T13:03:48.683Z,17.83
2022-09-14T13:06:15.818Z,18.03
2022-09-14T13:08:49.077Z,17.93
2022-09-14T13:11:22.972Z,18.04
2022-09-14T13:13:50.923Z,17.83
2022-09-14T13:16:27.551Z,17.72
2022-09-14T13:19:01.732Z,18.12
2022-09-14T13:21:28.575Z,18.37
2022-09-14T13:23:55.407Z,18.31
2022-09-14T13:26:26.920Z,17.98
2022-09-14T13:28:55.595Z,17.88
2022-09-14T13:31:35.748Z,17.83
2022-09-14T13:34:04.746Z,17.97
2022-09-14T13:36:41.876Z,18.09
2022-09-14T13:39:24.650Z,18.31
2022-09-14T13:41:52.300Z,18.31
2022-09-14T13:44:26.823Z,18.45
2022-09-14T13:46:55.768Z,18.40
2022-09-14T13:49:22.977Z,18.31
2022-09-14T13:51:49.966Z,18.29
2022-09-14T13:54:29.920Z,18.02
2022-09-14T13:57:17.401Z,17.97
2022-09-14T14:00:18.026Z,17.98
2022-09-14T14:03:01.416Z,18.00
2022-09-14T14:05:35.165Z,17.99
2022-09-14T14:08:04.971Z,18.08
2022-09-14T14:10:37.698Z,18.30
2022-09-14T14:13:05.364Z,18.30
2022-09-14T14:15:41.948Z,18.42
2022-09-14T14:18:50.752Z,18.57
2022-09-14T14:21:28.769Z,19.06
2022-09-14T14:24:17.157Z,19.25
2022-09-14T14:26:56.133Z,19.40
2022-09-14T14:29:23.599Z,19.57
2022-09-14T14:31:50.727Z,19.42
2022-09-14T14:34:19.221Z,19.46
2022-09-14T14:36:48.111Z,19.39
2022-09-14T14:39:14.903Z,19.09
2022-09-14T14:41:42.107Z,18.82
2022-09-14T14:44:16.017Z,18.77
2022-09-14T14:46:43.164Z,18.70
2022-09-14T14:49:14.765Z,18.70
2022-09-14T14:51:41.972Z,18.98
2022-09-14T14:54:10.403Z,19.17
2022-09-14T14:56:40.368Z,19.25
2022-09-14T14:59:28.755Z,19.32
2022-09-14T15:01:56.531Z,19.27
2022-09-14T15:04:23.926Z,19.21
2022-09-14T15:06:51.081Z,19.42
2022-09-14T15:09:27.567Z,19.45
2022-09-14T15:11:55.067Z,19.50
2022-09-14T15:14:27.181Z,19.60
2022-09-14T15:16:59.803Z,19.70
2022-09-14T15:19:27.563Z,19.63
2022-09-14T15:21:58.606Z,19.76
2022-09-14T15:24:29.498Z,19.59
2022-09-14T15:26:56.437Z,19.46
2022-09-14T15:29:23.383Z,19.37
2022-09-14T15:31:50.663Z,19.19
2022-09-14T15:34:17.623Z,19.23
2022-09-14T15:36:54.855Z,19.17
2022-09-14T15:39:28.047Z,18.74
2022-09-14T15:41:55.931Z,18.72
2022-09-14T15:44:23.168Z,18.54
2022-09-14T15:46:51.862Z,18.64
2022-09-14T15:49:21.508Z,18.37
2022-09-14T15:51:50.869Z,18.47
2022-09-14T15:54:19.137Z,18.47
2022-09-14T15:56:50.715Z,18.40
2022-09-14T15:59:19.277Z,18.51
2022-09-14T16:01:46.866Z,18.51
2022-09-14T16:04:14.288Z,18.64
2022-09-14T16:06:41.397Z,18.71
2022-09-14T16:09:10.640Z,18.73
2022-09-14T16:11:38.461Z,18.79
2022-09-14T16:14:06.893Z,18.80
2022-09-14T16:16:35.364Z,18.67
2022-09-14T16:19:11.119Z,18.82
2022-09-14T16:21:38.879Z,18.64
2022-09-14T16:24:08.341Z,18.59
2022-09-14T16:26:37.529Z,18.68
2022-09-14T16:29:06.369Z,18.71
2022-09-14T16:31:37.835Z,18.60
2022-09-14T16:34:07.842Z,18.56
2022-09-14T16:36:37.288Z,18.36
2022-09-14T16:39:06.746Z,18.11
2022-09-14T16:41:33.631Z,18.06
2022-09-14T16:44:03.189Z,18.08
2022-09-14T16:46:31.315Z,18.00
2022-09-14T16:49:01.677Z,18.02
2022-09-14T16:51:30.632Z,18.10
2022-09-14T16:53:59.620Z,17.99
2022-09-14T16:56:30.099Z,17.93
2022-09-14T16:58:57.758Z,17.98
2022-09-14T17:01:29.272Z,17.95
2022-09-14T17:03:58.355Z,17.92
2022-09-14T17:06:28.733Z,17.78
2022-09-14T17:09:00.489Z,17.76
2022-09-14T17:11:29.889Z,17.69
2022-09-14T17:13:57.508Z,17.79
2022-09-14T17:16:26.500Z,17.75
2022-09-14T17:18:56.869Z,17.76
2022-09-14T17:21:32.486Z,17.68
2022-09-14T17:24:00.388Z,17.55
2022-09-14T17:26:27.744Z,17.54
2022-09-14T17:28:56.945Z,17.52
2022-09-14T17:31:26.750Z,17.47
2022-09-14T17:33:54.982Z,17.42
2022-09-14T17:36:22.539Z,17.26
2022-09-14T17:38:50.247Z,17.22
2022-09-14T17:41:22.566Z,17.14
2022-09-14T17:43:54.381Z,17.07
2022-09-14T17:46:24.829Z,17.07
2022-09-14T17:48:52.741Z,16.95
2022-09-14T17:51:25.020Z,16.66
2022-09-14T17:53:57.015Z,16.84
2022-09-14T17:56:27.074Z,16.55
2022-09-14T17:59:10.108Z,16.75
2022-09-14T18:01:37.517Z,16.59
2022-09-14T18:04:10.595Z,16.40
2022-09-14T18:06:40.554Z,16.60
2022-09-14T18:09:14.087Z,16.33
2022-09-14T18:11:41.276Z,16.29
2022-09-14T18:14:13.009Z,16.34
2022-09-14T18:16:41.390Z,16.45
2022-09-14T18:19:17.878Z,16.39
2022-09-14T18:21:48.955Z,16.29
2022-09-14T18:24:19.531Z,16.26
2022-09-14T18:29:34.176Z,15.79
2022-09-14T18:32:02.497Z,15.69
2022-09-14T18:34:29.791Z,15.91
2022-09-14T18:37:00.307Z,15.60
2022-09-14T18:39:27.615Z,15.64
2022-09-14T18:41:59.476Z,15.27
2022-09-14T18:44:28.736Z,15.75
2022-09-14T18:46:56.010Z,15.24
2022-09-14T18:49:23.533Z,15.60
2022-09-14T18:51:51.049Z,15.22
2022-09-14T18:54:19.117Z,15.41
2022-09-14T18:56:46.583Z,15.24
2022-09-14T18:59:15.515Z,14.91
2022-09-14T19:01:44.261Z,14.96
2022-09-14T19:04:12.244Z,15.03
2022-09-14T19:06:41.658Z,14.74
2022-09-14T19:09:09.756Z,15.03
2022-09-14T19:11:37.277Z,15.06
2022-09-14T19:14:10.622Z,15.03
2022-09-14T19:16:40.631Z,14.85
2022-09-14T19:19:09.351Z,15.00
2022-09-14T19:21:39.789Z,14.96
2022-09-14T19:24:12.675Z,14.65
2022-09-14T19:26:45.765Z,14.63
2022-09-14T19:29:20.811Z,14.90
2022-09-14T19:31:51.883Z,14.87
2022-09-14T19:34:23.743Z,14.84
2022-09-14T19:36:51.038Z,14.78
2022-09-14T19:39:21.535Z,14.60
2022-09-14T19:41:52.818Z,14.74
2022-09-14T19:44:22.780Z,14.14
2022-09-14T19:46:50.701Z,14.61
2022-09-14T19:49:26.049Z,14.57
2022-09-14T19:51:54.423Z,14.54
2022-09-14T19:54:25.362Z,14.27
2022-09-14T19:56:52.639Z,14.43
2022-09-14T19:59:22.799Z,14.37
2022-09-14T20:01:53.580Z,14.18
2022-09-14T20:04:24.554Z,14.26
2022-09-14T20:06:52.383Z,14.27
2022-09-14T20:09:23.685Z,13.93
2022-09-14T20:11:54.113Z,14.17
2022-09-14T20:14:25.810Z,14.02
2022-09-14T20:16:59.105Z,13.58
2022-09-14T20:19:29.128Z,13.34
2022-09-14T20:21:58.827Z,13.47
2022-09-14T20:24:28.380Z,13.49
2022-09-14T20:27:00.301Z,13.36
2022-09-14T20:29:31.386Z,13.24
2022-09-14T20:31:59.510Z,13.13
2022-09-14T20:34:26.857Z,12.95
2022-09-14T20:36:54.651Z,12.84
2022-09-14T20:39:25.066Z,12.28
2022-09-14T20:41:56.140Z,12.75
2022-09-14T20:44:26.215Z,12.57
2022-09-14T20:46:57.608Z,12.59
2022-09-14T20:49:24.856Z,12.72
2022-09-14T20:51:57.233Z,12.63
2022-09-14T20:54:24.889Z,12.11
2022-09-14T20:56:52.920Z,12.68
2022-09-14T20:59:23.907Z,12.98
2022-09-14T21:01:52.976Z,12.54
2022-09-14T21:04:29.665Z,13.16
2022-09-14T21:06:57.027Z,12.93
2022-09-14T21:09:26.541Z,13.08
2022-09-14T21:11:54.400Z,12.92
2022-09-14T21:14:22.569Z,13.13
2022-09-14T21:16:55.611Z,13.17
2022-09-14T21:19:25.828Z,12.90
2022-09-14T21:21:53.081Z,13.22
2022-09-14T21:24:22.337Z,12.76
2022-09-14T21:26:49.687Z,13.23
2022-09-14T21:29:21.903Z,13.23
2022-09-14T21:31:49.975Z,13.10
2022-09-14T21:34:18.508Z,13.39
2022-09-14T21:36:49.560Z,13.43
2022-09-14T21:39:23.813Z,13.27
2022-09-14T21:41:58.789Z,13.42
2022-09-14T21:44:36.237Z,13.38
2022-09-14T21:47:04.978Z,12.97
2022-09-14T21:49:32.274Z,13.22
2022-09-14T21:51:59.377Z,13.13
2022-09-14T21:54:26.878Z,13.00
2022-09-14T21:56:57.526Z,13.05
2022-09-14T21:59:26.499Z,12.64
2022-09-14T22:01:54.011Z,12.47
2022-09-14T22:04:24.123Z,12.67
2022-09-14T22:06:52.134Z,12.06
2022-09-14T22:09:22.015Z,11.99
2022-09-14T22:11:49.235Z,11.99
2022-09-14T22:14:24.055Z,12.20
2022-09-14T22:16:51.817Z,12.27
2022-09-14T22:19:24.690Z,12.48
2022-09-14T22:21:52.708Z,12.28
2022-09-14T22:24:26.464Z,12.58
2022-09-14T22:26:54.995Z,12.65
2022-09-14T22:29:22.518Z,12.68
2022-09-14T22:31:50.839Z,12.47
2022-09-14T22:34:18.467Z,12.29
2022-09-14T22:36:45.767Z,12.40
2022-09-14T22:39:14.338Z,12.51
2022-09-14T22:41:41.441Z,11.95
2022-09-14T22:44:09.308Z,12.30
2022-09-14T22:46:36.906Z,12.33
2022-09-14T22:49:06.357Z,12.59
2022-09-14T22:51:33.563Z,12.23
2022-09-14T22:54:01.323Z,12.36
2022-09-14T22:56:34.977Z,12.57
2022-09-14T22:59:04.789Z,11.99
2022-09-14T23:01:34.991Z,11.95
2022-09-14T23:04:05.805Z,11.83
2022-09-14T23:06:36.121Z,11.75
2022-09-14T23:09:04.136Z,11.75
2022-09-14T23:11:31.445Z,11.79
2022-09-14T23:13:59.054Z,12.13
2022-09-14T23:16:28.899Z,11.90
2022-09-14T23:18:58.889Z,11.88
2022-09-14T23:21:27.131Z,11.55
2022-09-14T23:23:56.632Z,11.70
2022-09-14T23:26:24.495Z,11.57
2022-09-14T23:28:53.267Z,11.89
2022-09-14T23:31:20.918Z,11.73
2022-09-14T23:33:52.764Z,11.78
2022-09-14T23:36:21.359Z,11.71
2022-09-14T23:38:51.691Z,11.28
2022-09-14T23:41:21.453Z,11.58
2022-09-14T23:43:48.655Z,11.46
2022-09-14T23:46:16.348Z,11.39
2022-09-14T23:48:44.202Z,11.01
2022-09-14T23:51:12.457Z,11.22
2022-09-14T23:53:40.481Z,11.08
2022-09-14T23:56:08.966Z,11.04
2022-09-14T23:58:36.667Z,10.98
